Time;durP1;ratioP1;P1;durP2;ratioP2;P2;SDS_P1;SDS_P2;PMS_P1;PMS_P2;Temp;Humidity;BMP_temperature;BMP_pressure;BME280_temperature;BME280_humidity;BME280_pressure;Samples;Min_cycle;Max_cycle;Signal;HPM_P1;HPM_P2
2021/06/04 00:00:09;;;;;;;9.63;8.23;;;;;;;;;;1497409;39;20137;-63
2021/06/04 00:01:14;;;;;;;9.32;8.43;;;;;;;;;;1497450;39;20037;-63
2021/06/04 00:02:15;;;;;;;13.15;8.45;;;;;;;;;;1497368;39;20047;-63
2021/06/04 00:03:21;;;;;;;9.15;8.25;;;;;;;;;;1497193;39;20023;-62
2021/06/04 00:04:22;;;;;;;10.85;8.98;;;;;;;;;;1497220;39;20038;-63
2021/06/04 00:05:30;;;;;;;11.27;9.15;;;;;;;;;;1497426;39;20032;-63
2021/06/04 00:06:32;;;;;;;10.52;8.88;;;;;;;;;;1497259;39;20111;-63
2021/06/04 00:07:33;;;;;;;9.93;8.93;;;;;;;;;;1497426;39;20027;-63
2021/06/04 00:08:35;;;;;;;9.80;8.60;;;;;;;;;;1492583;39;20024;-63
2021/06/04 00:09:36;;;;;;;10.00;9.00;;;;;;;;;;1492750;39;20039;-63
2021/06/04 00:10:40;;;;;;;9.57;8.60;;;;;;;;;;1497212;39;20034;-63
2021/06/04 00:11:45;;;;;;;9.50;8.38;;;;;;;;;;1497175;39;20379;-63
2021/06/04 00:12:46;;;;;;;10.45;8.40;;;;;;;;;;1497211;39;20306;-63
2021/06/04 00:13:50;;;;;;;9.68;8.70;;;;;;;;;;1497174;39;20031;-63
2021/06/04 00:14:52;;;;;;;11.05;8.73;;;;;;;;;;1497173;39;20118;-63
2021/06/04 00:16:00;;;;;;;9.57;8.43;;;;;;;;;;1497436;39;20112;-63
2021/06/04 00:17:04;;;;;;;12.10;8.80;;;;;;;;;;1497179;39;20475;-62
2021/06/04 00:18:05;;;;;;;9.25;8.35;;;;;;;;;;1497341;39;20023;-63
2021/06/04 00:19:09;;;;;;;9.13;8.18;;;;;;;;;;1497166;39;20383;-63
2021/06/04 00:20:15;;;;;;;9.80;8.80;;;;;;;;;;1492459;39;20392;-62
2021/06/04 00:21:18;;;;;;;9.77;8.30;;;;;;;;;;1493145;39;20109;-63
2021/06/04 00:22:24;;;;;;;9.63;8.63;;;;;;;;;;1497101;39;20042;-62
2021/06/04 00:23:25;;;;;;;10.85;8.25;;;;;;;;;;1497231;39;20401;-63
2021/06/04 00:24:28;;;;;;;11.07;8.93;;;;;;;;;;1497228;39;20030;-62
2021/06/04 00:25:37;;;;;;;;;;;;;;;;;;1497986;39;20036;-62
2021/06/04 00:26:40;;;;;;;8.80;7.90;;;;;;;;;;1497365;39;20276;-62
2021/06/04 00:27:41;;;;;;;9.95;7.85;;;;;;;;;;1497455;39;20127;-63
2021/06/04 00:28:43;;;;;;;8.45;7.50;;;;;;;;;;1497332;39;20039;-63
2021/06/04 00:29:44;;;;;;;8.85;7.82;;;;;;;;;;1497121;39;20030;-61
2021/06/04 00:30:46;;;;;;;9.00;7.95;;;;;;;;;;1497246;39;20031;-63
2021/06/04 00:31:51;;;;;;;9.82;7.60;;;;;;;;;;1497148;39;20023;-62
2021/06/04 00:32:52;;;;;;;8.90;7.80;;;;;;;;;;1497141;39;20027;-62
2021/06/04 00:33:53;;;;;;;9.18;7.90;;;;;;;;;;1497319;39;20023;-62
2021/06/04 00:34:55;;;;;;;9.32;7.78;;;;;;;;;;1497158;39;20039;-63
2021/06/04 00:35:56;;;;;;;8.85;7.88;;;;;;;;;;1497330;39;20027;-63
2021/06/04 00:36:58;;;;;;;8.52;7.53;;;;;;;;;;1497219;39;20116;-63
2021/06/04 00:37:59;;;;;;;8.55;7.75;;;;;;;;;;1497297;39;20028;-63
2021/06/04 00:39:01;;;;;;;7.82;7.03;;;;;;;;;;1497106;39;20039;-63
2021/06/04 00:40:05;;;;;;;8.45;7.22;;;;;;;;;;1497097;39;20023;-63
2021/06/04 00:41:12;;;;;;;8.65;7.68;;;;;;;;;;1497306;39;20105;-63
2021/06/04 00:42:17;;;;;;;10.88;7.47;;;;;;;;;;1497340;39;20031;-62
2021/06/04 00:43:18;;;;;;;8.25;7.40;;;;;;;;;;1497087;39;20035;-63
2021/06/04 00:44:20;;;;;;;8.65;7.45;;;;;;;;;;1497325;39;20140;-62
2021/06/04 00:45:24;;;;;;;8.13;6.78;;;;;;;;;;1497397;39;20031;-63
2021/06/04 00:46:27;;;;;;;8.82;6.85;;;;;;;;;;1497086;39;20023;-62
2021/06/04 00:47:30;;;;;;;8.63;7.00;;;;;;;;;;1497092;39;20027;-62
2021/06/04 00:48:31;;;;;;;8.70;7.05;;;;;;;;;;1497084;39;20027;-63
2021/06/04 00:49:33;;;;;;;7.85;7.05;;;;;;;;;;1497151;39;20027;-62
2021/06/04 00:50:39;;;;;;;7.03;6.32;;;;;;;;;;1492461;39;20024;-63
2021/06/04 00:51:44;;;;;;;7.55;6.85;;;;;;;;;;1492715;39;20356;-62
2021/06/04 00:52:46;;;;;;;8.00;7.00;;;;;;;;;;1497109;39;20051;-63
2021/06/04 00:53:49;;;;;;;6.75;5.95;;;;;;;;;;1497123;39;20027;-63
2021/06/04 00:54:51;;;;;;;7.13;5.85;;;;;;;;;;1497273;39;20027;-63
2021/06/04 00:55:54;;;;;;;6.50;5.80;;;;;;;;;;1497098;39;20275;-62
2021/06/04 00:56:55;;;;;;;8.93;5.45;;;;;;;;;;1497292;39;20034;-63
2021/06/04 00:57:56;;;;;;;8.20;5.20;;;;;;;;;;1497278;39;20031;-62
2021/06/04 00:58:58;;;;;;;6.53;5.32;;;;;;;;;;1497078;39;20379;-62
2021/06/04 01:00:02;;;;;;;7.18;5.35;;;;;;;;;;1497294;39;20027;-62
2021/06/04 01:01:04;;;;;;;5.90;5.10;;;;;;;;;;1497068;39;20472;-62
2021/06/04 01:02:07;;;;;;;5.95;5.00;;;;;;;;;;1497144;39;20058;-63
2021/06/04 01:03:10;;;;;;;6.18;4.88;;;;;;;;;;1492499;39;20061;-63
2021/06/04 01:04:16;;;;;;;6.40;5.25;;;;;;;;;;1492496;39;20028;-63
2021/06/04 01:05:18;;;;;;;6.25;4.82;;;;;;;;;;1497320;39;20035;-63
2021/06/04 01:06:29;;;;;;;5.82;5.05;;;;;;;;;;1497083;39;20390;-63
2021/06/04 01:07:35;;;;;;;6.13;4.72;;;;;;;;;;1497090;39;20043;-62
2021/06/04 01:08:59;;;;;;;5.18;4.60;;;;;;;;;;1497174;39;20096;-62
2021/06/04 01:10:10;;;;;;;7.43;4.90;;;;;;;;;;1496477;39;20031;-62
2021/06/04 01:11:18;;;;;;;8.07;5.32;;;;;;;;;;1497088;39;20379;-62
2021/06/04 01:12:36;;;;;;;6.43;4.70;;;;;;;;;;1497234;39;20039;-63
2021/06/04 01:13:50;;;;;;;7.82;4.95;;;;;;;;;;1497079;39;20034;-62
2021/06/04 01:14:59;;;;;;;6.43;4.97;;;;;;;;;;1497077;39;20039;-62
2021/06/04 01:16:07;;;;;;;6.72;4.97;;;;;;;;;;1497048;39;20391;-62
2021/06/04 01:17:14;;;;;;;6.13;4.93;;;;;;;;;;1497015;39;20054;-62
2021/06/04 01:18:24;;;;;;;5.95;4.70;;;;;;;;;;1497148;39;20066;-63
2021/06/04 01:19:42;;;;;;;5.80;5.18;;;;;;;;;;1497163;39;20054;-63
2021/06/04 01:20:49;;;;;;;5.60;4.50;;;;;;;;;;1497093;39;20047;-62
2021/06/04 01:21:53;;;;;;;5.57;4.97;;;;;;;;;;1497200;39;20031;-62
2021/06/04 01:23:09;;;;;;;5.53;4.82;;;;;;;;;;1497250;39;20027;-62
2021/06/04 01:24:16;;;;;;;6.15;5.05;;;;;;;;;;1497327;39;20142;-63
2021/06/04 01:25:34;;;;;;;6.47;5.07;;;;;;;;;;1497191;39;20275;-63
2021/06/04 01:26:38;;;;;;;6.53;4.90;;;;;;;;;;1497151;39;20117;-62
2021/06/04 01:27:44;;;;;;;5.95;5.20;;;;;;;;;;1497324;39;20027;-63
2021/06/04 01:28:49;;;;;;;6.03;4.70;;;;;;;;;;1497418;39;20275;-59
2021/06/04 01:29:54;;;;;;;6.13;4.88;;;;;;;;;;1497239;39;20053;-59
2021/06/04 01:31:03;;;;;;;5.80;5.10;;;;;;;;;;1492469;39;20390;-59
2021/06/04 01:32:11;;;;;;;6.25;4.82;;;;;;;;;;1492949;39;20032;-59
2021/06/04 01:33:15;;;;;;;7.13;5.30;;;;;;;;;;1496994;39;20023;-59
2021/06/04 01:34:21;;;;;;;7.03;5.47;;;;;;;;;;1497130;39;20077;-58
2021/06/04 01:35:25;;;;;;;7.78;5.20;;;;;;;;;;1497009;39;20085;-59
2021/06/04 01:36:30;;;;;;;6.20;5.03;;;;;;;;;;1496989;39;20389;-59
2021/06/04 01:37:32;;;;;;;5.85;5.15;;;;;;;;;;1497170;39;20019;-59
2021/06/04 01:38:37;;;;;;;6.10;4.90;;;;;;;;;;1497189;39;20067;-59
2021/06/04 01:39:41;;;;;;;6.80;5.05;;;;;;;;;;1497268;39;20032;-59
2021/06/04 01:40:50;;;;;;;5.88;4.88;;;;;;;;;;1496997;39;20071;-58
2021/06/04 01:41:53;;;;;;;5.63;4.88;;;;;;;;;;1496919;39;20067;-59
2021/06/04 01:42:56;;;;;;;5.78;4.93;;;;;;;;;;1497040;39;20035;-58
2021/06/04 01:44:02;;;;;;;5.63;4.63;;;;;;;;;;1496968;39;20031;-58
2021/06/04 01:45:09;;;;;;;8.48;4.72;;;;;;;;;;1497169;39;20069;-58
2021/06/04 01:46:13;;;;;;;6.35;4.88;;;;;;;;;;1497211;39;20031;-58
2021/06/04 01:47:21;;;;;;;6.25;4.80;;;;;;;;;;1497137;39;20032;-59
2021/06/04 01:48:25;;;;;;;5.47;4.97;;;;;;;;;;1496928;39;20028;-59
2021/06/04 01:49:30;;;;;;;5.63;5.03;;;;;;;;;;1497137;39;20085;-59
2021/06/04 01:50:35;;;;;;;5.20;4.68;;;;;;;;;;1497160;39;20035;-59
2021/06/04 01:51:39;;;;;;;5.32;4.78;;;;;;;;;;1496976;39;20031;-59
2021/06/04 01:52:43;;;;;;;5.28;4.78;;;;;;;;;;1497021;39;20023;-58
2021/06/04 01:53:48;;;;;;;6.13;5.47;;;;;;;;;;1497160;39;20030;-59
2021/06/04 01:54:54;;;;;;;5.85;5.22;;;;;;;;;;1496983;39;20031;-58
2021/06/04 01:56:02;;;;;;;7.85;5.13;;;;;;;;;;1496989;39;20054;-59
2021/06/04 01:57:08;;;;;;;5.95;5.18;;;;;;;;;;1496908;39;20019;-59
2021/06/04 01:58:14;;;;;;;7.18;5.18;;;;;;;;;;1492295;39;20111;-59
2021/06/04 01:59:20;;;;;;;5.90;5.28;;;;;;;;;;1492796;39;20035;-59
2021/06/04 02:00:26;;;;;;;6.05;5.45;;;;;;;;;;1496960;39;20472;-59
2021/06/04 02:01:29;;;;;;;7.30;5.10;;;;;;;;;;1496938;39;20031;-58
2021/06/04 02:02:35;;;;;;;7.85;5.30;;;;;;;;;;1497050;39;20056;-59
2021/06/04 02:03:36;;;;;;;5.78;5.15;;;;;;;;;;1496940;39;20028;-58
2021/06/04 02:04:40;;;;;;;6.97;5.63;;;;;;;;;;1496909;39;20040;-58
2021/06/04 02:05:42;;;;;;;6.32;5.07;;;;;;;;;;1496886;39;20387;-58
2021/06/04 02:06:44;;;;;;;8.07;5.57;;;;;;;;;;1496927;39;20031;-58
2021/06/04 02:07:45;;;;;;;5.78;5.18;;;;;;;;;;1496879;39;20414;-58
2021/06/04 02:08:49;;;;;;;7.20;5.65;;;;;;;;;;1496899;39;20025;-59
2021/06/04 02:09:50;;;;;;;7.32;5.38;;;;;;;;;;1497050;39;20039;-59
2021/06/04 02:10:53;;;;;;;6.43;4.95;;;;;;;;;;1497046;39;20032;-59
2021/06/04 02:11:56;;;;;;;6.13;4.78;;;;;;;;;;1496876;39;20031;-58
2021/06/04 02:12:58;;;;;;;6.55;5.18;;;;;;;;;;1497160;39;20031;-58
2021/06/04 02:14:03;;;;;;;7.57;5.40;;;;;;;;;;1496866;39;20030;-58
2021/06/04 02:15:12;;;;;;;6.70;5.45;;;;;;;;;;1496951;39;20028;-58
2021/06/04 02:16:45;;;;;;;7.38;5.07;;;;;;;;;;1496900;39;20283;-58
2021/06/04 02:17:55;;;;;;;7.25;5.25;;;;;;;;;;1492059;39;20031;-58
2021/06/04 02:19:07;;;;;;;6.55;5.45;;;;;;;;;;1496938;39;20046;-59
2021/06/04 02:20:16;;;;;;;6.93;5.43;;;;;;;;;;1497062;39;20031;-58
2021/06/04 02:21:21;;;;;;;6.55;5.20;;;;;;;;;;1497145;39;20030;-59
2021/06/04 02:22:28;;;;;;;7.28;5.38;;;;;;;;;;1497431;39;20047;-59
2021/06/04 02:23:34;;;;;;;6.97;5.03;;;;;;;;;;1497804;39;20083;-59
2021/06/04 02:24:40;;;;;;;7.45;5.43;;;;;;;;;;1497696;39;20028;-59
2021/06/04 02:25:51;;;;;;;6.82;5.00;;;;;;;;;;1497488;39;20025;-59
2021/06/04 02:27:01;;;;;;;9.20;5.60;;;;;;;;;;1497687;39;20027;-58
2021/06/04 02:28:09;;;;;;;6.47;5.18;;;;;;;;;;1497493;39;20063;-59
2021/06/04 02:29:16;;;;;;;6.20;5.35;;;;;;;;;;1492816;39;20036;-58
2021/06/04 02:30:22;;;;;;;8.25;5.65;;;;;;;;;;1489078;39;20040;-59
2021/06/04 02:31:28;;;;;;;6.28;5.05;;;;;;;;;;1493315;39;20024;-59
2021/06/04 02:32:35;;;;;;;6.20;5.00;;;;;;;;;;1497431;39;20035;-59
2021/06/04 02:33:39;;;;;;;6.55;5.40;;;;;;;;;;1497753;39;20035;-58
2021/06/04 02:34:45;;;;;;;5.75;5.07;;;;;;;;;;1497467;39;20028;-59
2021/06/04 02:35:53;;;;;;;6.70;5.35;;;;;;;;;;1497817;39;20071;-59
2021/06/04 02:36:58;;;;;;;5.88;4.80;;;;;;;;;;1497681;39;20028;-59
2021/06/04 02:38:03;;;;;;;5.65;4.90;;;;;;;;;;1497607;39;20120;-59
2021/06/04 02:39:10;;;;;;;6.07;5.10;;;;;;;;;;1497664;39;20032;-59
2021/06/04 02:40:18;;;;;;;5.75;5.07;;;;;;;;;;1497446;39;20034;-58
2021/06/04 02:41:23;;;;;;;6.43;4.78;;;;;;;;;;1497482;39;20019;-59
2021/06/04 02:42:29;;;;;;;8.25;5.55;;;;;;;;;;1497364;39;20409;-58
2021/06/04 02:43:35;;;;;;;8.05;5.50;;;;;;;;;;1497484;39;20032;-58
2021/06/04 02:44:42;;;;;;;6.03;5.22;;;;;;;;;;1497682;39;20028;-58
2021/06/04 02:45:46;;;;;;;7.10;4.78;;;;;;;;;;1497776;39;20027;-59
2021/06/04 02:46:50;;;;;;;7.43;5.30;;;;;;;;;;1497430;39;20394;-58
2021/06/04 02:47:54;;;;;;;5.75;4.82;;;;;;;;;;1497624;39;20038;-58
2021/06/04 02:48:56;;;;;;;7.68;5.07;;;;;;;;;;1497618;39;20120;-58
2021/06/04 02:50:00;;;;;;;6.75;4.85;;;;;;;;;;1497677;39;20107;-58
2021/06/04 02:51:09;;;;;;;5.43;4.80;;;;;;;;;;1497615;39;20038;-58
2021/06/04 02:52:26;;;;;;;6.45;5.10;;;;;;;;;;1497381;39;20058;-58
2021/06/04 02:53:30;;;;;;;5.40;4.60;;;;;;;;;;1497479;39;20350;-58
2021/06/04 02:54:33;;;;;;;5.22;4.70;;;;;;;;;;1497618;39;20035;-58
2021/06/04 02:55:34;;;;;;;5.20;4.70;;;;;;;;;;1497471;39;20035;-58
2021/06/04 02:56:38;;;;;;;7.18;5.18;;;;;;;;;;1497577;39;20030;-59
2021/06/04 02:57:40;;;;;;;7.88;5.32;;;;;;;;;;1497605;39;20029;-59
2021/06/04 02:58:44;;;;;;;6.40;5.07;;;;;;;;;;1497401;39;20444;-59
2021/06/04 02:59:48;;;;;;;6.43;5.20;;;;;;;;;;1497602;39;20039;-59
2021/06/04 03:00:48;;;;;;;6.55;5.20;;;;;;;;;;1497407;39;20382;-58
2021/06/04 03:01:54;;;;;;;6.32;4.90;;;;;;;;;;1497492;39;20043;-60
2021/06/04 03:02:55;;;;;;;5.80;5.03;;;;;;;;;;1497409;39;20031;-59
2021/06/04 03:03:58;;;;;;;5.72;5.05;;;;;;;;;;1497353;39;20035;-59
2021/06/04 03:05:03;;;;;;;5.50;5.00;;;;;;;;;;1492713;39;20031;-59
2021/06/04 03:06:05;;;;;;;5.28;4.78;;;;;;;;;;1492991;39;20090;-59
2021/06/04 03:07:10;;;;;;;5.60;5.00;;;;;;;;;;1497389;39;20034;-59
2021/06/04 03:08:11;;;;;;;5.90;5.30;;;;;;;;;;1497364;39;20034;-58
2021/06/04 03:09:15;;;;;;;6.25;5.65;;;;;;;;;;1497545;39;20035;-59
2021/06/04 03:10:22;;;;;;;5.78;5.15;;;;;;;;;;1497350;39;20390;-58
2021/06/04 03:11:23;;;;;;;5.85;5.03;;;;;;;;;;1497372;39;20364;-58
2021/06/04 03:12:29;;;;;;;6.68;5.32;;;;;;;;;;1497293;39;20047;-58
2021/06/04 03:13:33;;;;;;;6.47;5.28;;;;;;;;;;1497464;39;20053;-58
2021/06/04 03:14:34;;;;;;;5.88;5.03;;;;;;;;;;1497338;39;20470;-58
2021/06/04 03:15:38;;;;;;;5.95;4.68;;;;;;;;;;1497553;39;20069;-58
2021/06/04 03:16:41;;;;;;;6.68;5.10;;;;;;;;;;1497514;39;20031;-58
2021/06/04 03:17:42;;;;;;;7.45;5.72;;;;;;;;;;1497334;39;20401;-58
2021/06/04 03:18:47;;;;;;;5.82;5.00;;;;;;;;;;1497536;39;20031;-59
2021/06/04 03:19:48;;;;;;;5.80;5.20;;;;;;;;;;1497376;39;20430;-59
2021/06/04 03:20:51;;;;;;;6.53;4.65;;;;;;;;;;1497345;39;20339;-59
2021/06/04 03:21:55;;;;;;;6.88;5.25;;;;;;;;;;1497459;39;20031;-58
2021/06/04 03:22:57;;;;;;;6.30;5.07;;;;;;;;;;1497349;39;20027;-59
2021/06/04 03:23:59;;;;;;;5.30;4.80;;;;;;;;;;1497422;39;20294;-59
2021/06/04 03:25:04;;;;;;;6.45;5.32;;;;;;;;;;1497346;39;20038;-59
2021/06/04 03:26:09;;;;;;;6.63;4.88;;;;;;;;;;1497348;39;20024;-58
2021/06/04 03:27:14;;;;;;;5.43;4.57;;;;;;;;;;1497295;39;20379;-58
2021/06/04 03:28:20;;;;;;;6.32;5.20;;;;;;;;;;1497532;39;20027;-58
2021/06/04 03:29:24;;;;;;;5.53;4.78;;;;;;;;;;1497559;39;20093;-58
2021/06/04 03:30:33;;;;;;;5.85;5.25;;;;;;;;;;1497319;39;20031;-58
2021/06/04 03:31:38;;;;;;;5.20;4.70;;;;;;;;;;1497263;39;20055;-59
2021/06/04 03:32:39;;;;;;;5.78;4.90;;;;;;;;;;1497148;39;20391;-58
2021/06/04 03:33:41;;;;;;;7.20;5.13;;;;;;;;;;1497189;39;20192;-59
2021/06/04 03:34:44;;;;;;;6.90;5.05;;;;;;;;;;1497249;39;20035;-58
2021/06/04 03:35:46;;;;;;;6.55;5.25;;;;;;;;;;1497570;39;20112;-58
2021/06/04 03:36:49;;;;;;;6.43;5.10;;;;;;;;;;1497365;39;20120;-59
2021/06/04 03:37:50;;;;;;;6.57;5.30;;;;;;;;;;1497444;39;20074;-59
2021/06/04 03:38:51;;;;;;;5.30;4.80;;;;;;;;;;1497494;39;20035;-59
2021/06/04 03:39:52;;;;;;;5.75;5.00;;;;;;;;;;1497456;39;20030;-58
2021/06/04 03:40:54;;;;;;;6.65;5.15;;;;;;;;;;1497403;39;20375;-58
2021/06/04 03:41:57;;;;;;;5.70;5.03;;;;;;;;;;1497399;39;20035;-58
2021/06/04 03:43:00;;;;;;;6.18;5.43;;;;;;;;;;1497497;39;20035;-59
2021/06/04 03:44:07;;;;;;;6.22;5.28;;;;;;;;;;1497357;39;20038;-59
2021/06/04 03:45:14;;;;;;;7.20;4.90;;;;;;;;;;1497549;39;20023;-59
2021/06/04 03:46:16;;;;;;;5.97;5.15;;;;;;;;;;1497523;39;20109;-59
2021/06/04 03:47:18;;;;;;;7.88;5.40;;;;;;;;;;1497345;39;20383;-58
2021/06/04 03:48:22;;;;;;;6.22;5.32;;;;;;;;;;1497285;39;20034;-59
2021/06/04 03:49:25;;;;;;;6.78;5.15;;;;;;;;;;1497441;39;20145;-58
2021/06/04 03:50:26;;;;;;;6.63;5.20;;;;;;;;;;1497271;39;20035;-59
2021/06/04 03:51:35;;;;;;;7.55;5.43;;;;;;;;;;1497209;39;20112;-59
2021/06/04 03:52:35;;;;;;;7.10;4.72;;;;;;;;;;1497457;39;20023;-59
2021/06/04 03:53:37;;;;;;;7.13;5.15;;;;;;;;;;1497528;39;20034;-59
2021/06/04 03:54:41;;;;;;;6.05;5.30;;;;;;;;;;1497355;39;20058;-58
2021/06/04 03:55:43;;;;;;;5.63;5.10;;;;;;;;;;1497309;39;20298;-59
2021/06/04 03:56:44;;;;;;;6.30;5.03;;;;;;;;;;1497424;39;20038;-59
2021/06/04 03:57:49;;;;;;;6.68;5.30;;;;;;;;;;1497174;39;20071;-59
2021/06/04 03:58:50;;;;;;;6.25;4.88;;;;;;;;;;1497263;39;20401;-58
2021/06/04 03:59:52;;;;;;;7.22;5.18;;;;;;;;;;1497223;39;20027;-59
2021/06/04 04:00:57;;;;;;;5.93;5.32;;;;;;;;;;1497260;39;20027;-58
2021/06/04 04:02:01;;;;;;;7.88;5.50;;;;;;;;;;1497267;39;20263;-60
2021/06/04 04:03:03;;;;;;;7.18;5.35;;;;;;;;;;1497225;39;20053;-58
2021/06/04 04:04:06;;;;;;;5.70;5.15;;;;;;;;;;1497395;39;20023;-58
2021/06/04 04:05:08;;;;;;;5.40;4.78;;;;;;;;;;1497205;39;20038;-58
2021/06/04 04:06:10;;;;;;;6.22;4.88;;;;;;;;;;1497246;39;20301;-58
2021/06/04 04:07:12;;;;;;;5.85;5.13;;;;;;;;;;1497262;39;20034;-58
2021/06/04 04:08:15;;;;;;;6.53;5.13;;;;;;;;;;1497215;39;20032;-58
2021/06/04 04:09:16;;;;;;;6.22;5.03;;;;;;;;;;1497417;39;20030;-58
2021/06/04 04:10:22;;;;;;;6.72;5.60;;;;;;;;;;1497222;39;20116;-59
2021/06/04 04:11:22;;;;;;;7.18;5.15;;;;;;;;;;1497198;39;20027;-59
2021/06/04 04:12:25;;;;;;;6.15;5.55;;;;;;;;;;1497160;39;20042;-58
2021/06/04 04:13:28;;;;;;;9.75;5.28;;;;;;;;;;1497356;39;20027;-59
2021/06/04 04:14:29;;;;;;;8.00;5.50;;;;;;;;;;1497279;39;20023;-58
2021/06/04 04:15:31;;;;;;;8.93;5.53;;;;;;;;;;1492541;39;20031;-58
2021/06/04 04:16:34;;;;;;;6.15;5.38;;;;;;;;;;1492645;39;20411;-59
2021/06/04 04:17:35;;;;;;;8.52;5.55;;;;;;;;;;1497217;39;20028;-59
2021/06/04 04:18:38;;;;;;;6.00;5.40;;;;;;;;;;1497507;39;20024;-58
2021/06/04 04:19:39;;;;;;;7.03;5.63;;;;;;;;;;1497381;39;20032;-57
2021/06/04 04:20:44;;;;;;;6.78;5.40;;;;;;;;;;1497206;39;20283;-59
2021/06/04 04:21:46;;;;;;;6.95;5.85;;;;;;;;;;1497176;39;20284;-59
2021/06/04 04:22:47;;;;;;;6.50;5.45;;;;;;;;;;1497425;39;20027;-58
2021/06/04 04:23:51;;;;;;;6.65;5.35;;;;;;;;;;1497355;39;20024;-59
2021/06/04 04:24:52;;;;;;;7.85;5.80;;;;;;;;;;1497162;39;20283;-58
2021/06/04 04:25:54;;;;;;;6.22;5.63;;;;;;;;;;1497196;39;20028;-58
2021/06/04 04:26:58;;;;;;;6.70;5.60;;;;;;;;;;1497371;39;20032;-59
2021/06/04 04:27:59;;;;;;;5.95;5.30;;;;;;;;;;1497359;39;20027;-58
2021/06/04 04:29:01;;;;;;;6.43;5.53;;;;;;;;;;1497374;39;20039;-58
2021/06/04 04:30:04;;;;;;;6.10;5.35;;;;;;;;;;1497133;39;20110;-58
2021/06/04 04:31:07;;;;;;;6.15;4.97;;;;;;;;;;1497181;39;20068;-59
2021/06/04 04:32:16;;;;;;;5.70;5.18;;;;;;;;;;1497358;39;20031;-59
2021/06/04 04:33:17;;;;;;;5.00;4.45;;;;;;;;;;1497365;39;20061;-58
2021/06/04 04:34:19;;;;;;;8.20;4.97;;;;;;;;;;1497315;39;20030;-58
2021/06/04 04:35:24;;;;;;;6.03;5.00;;;;;;;;;;1497168;39;20306;-58
2021/06/04 04:36:28;;;;;;;5.60;4.93;;;;;;;;;;1497142;39;20032;-58
2021/06/04 04:37:29;;;;;;;7.75;5.43;;;;;;;;;;1497039;39;20034;-58
2021/06/04 04:38:30;;;;;;;6.60;5.45;;;;;;;;;;1497356;39;20027;-60
2021/06/04 04:39:34;;;;;;;6.15;5.55;;;;;;;;;;1497241;39;20031;-59
2021/06/04 04:40:37;;;;;;;5.55;4.95;;;;;;;;;;1497154;39;20027;-58
2021/06/04 04:41:39;;;;;;;5.10;4.60;;;;;;;;;;1497197;39;20031;-60
2021/06/04 04:42:40;;;;;;;5.63;5.03;;;;;;;;;;1497153;39;20023;-58
2021/06/04 04:43:46;;;;;;;7.43;5.40;;;;;;;;;;1497325;39;20024;-58
2021/06/04 04:44:47;;;;;;;6.88;4.90;;;;;;;;;;1497216;39;20044;-59
2021/06/04 04:45:49;;;;;;;6.95;4.88;;;;;;;;;;1497081;39;20383;-59
2021/06/04 04:46:49;;;;;;;6.47;5.35;;;;;;;;;;1497282;39;20023;-58
2021/06/04 04:47:52;;;;;;;6.05;5.43;;;;;;;;;;1497108;39;20031;-58
2021/06/04 04:48:53;;;;;;;7.78;5.50;;;;;;;;;;1497267;39;20023;-58
2021/06/04 04:49:55;;;;;;;6.97;5.88;;;;;;;;;;1497126;39;20067;-59
2021/06/04 04:50:56;;;;;;;5.43;4.90;;;;;;;;;;1497117;39;20375;-58
2021/06/04 04:51:57;;;;;;;7.57;5.85;;;;;;;;;;1497266;39;20043;-59
2021/06/04 04:52:58;;;;;;;6.38;5.43;;;;;;;;;;1497280;39;20034;-59
2021/06/04 04:54:00;;;;;;;6.65;5.57;;;;;;;;;;1497308;39;20397;-59
2021/06/04 04:55:01;;;;;;;6.50;5.47;;;;;;;;;;1497271;39;20111;-59
2021/06/04 04:56:04;;;;;;;9.13;6.10;;;;;;;;;;1497266;39;20112;-58
2021/06/04 04:57:05;;;;;;;7.00;5.75;;;;;;;;;;1497104;39;20035;-59
2021/06/04 04:58:07;;;;;;;7.50;5.57;;;;;;;;;;1497190;39;20039;-58
2021/06/04 04:59:10;;;;;;;6.45;5.63;;;;;;;;;;1497330;39;20030;-58
2021/06/04 05:00:16;;;;;;;7.90;5.88;;;;;;;;;;1497273;39;20024;-59
2021/06/04 05:01:17;;;;;;;6.50;5.25;;;;;;;;;;1497145;39;20373;-59
2021/06/04 05:02:19;;;;;;;6.30;5.70;;;;;;;;;;1497149;39;20059;-59
2021/06/04 05:03:22;;;;;;;8.18;6.50;;;;;;;;;;1497096;39;20302;-60
2021/06/04 05:04:23;;;;;;;7.50;6.22;;;;;;;;;;1497243;39;20038;-59
2021/06/04 05:05:27;;;;;;;6.50;5.43;;;;;;;;;;1497169;39;20291;-59
2021/06/04 05:06:28;;;;;;;6.90;5.97;;;;;;;;;;1497065;39;20035;-59
2021/06/04 05:07:29;;;;;;;8.10;5.50;;;;;;;;;;1497217;39;20035;-59
2021/06/04 05:08:30;;;;;;;6.65;5.85;;;;;;;;;;1497170;39;20139;-59
2021/06/04 05:09:32;;;;;;;6.18;5.57;;;;;;;;;;1497178;39;20035;-59
2021/06/04 05:10:34;;;;;;;8.25;5.72;;;;;;;;;;1497044;39;20039;-59
2021/06/04 05:11:36;;;;;;;7.18;5.70;;;;;;;;;;1497139;39;20019;-59
2021/06/04 05:12:37;;;;;;;6.55;5.47;;;;;;;;;;1497105;39;20379;-58
2021/06/04 05:13:38;;;;;;;7.13;5.78;;;;;;;;;;1497340;39;20034;-60
2021/06/04 05:14:39;;;;;;;6.20;5.60;;;;;;;;;;1497143;39;20375;-59
2021/06/04 05:15:42;;;;;;;6.43;5.80;;;;;;;;;;1497228;39;20035;-59
2021/06/04 05:16:43;;;;;;;6.80;6.10;;;;;;;;;;1497163;39;20278;-59
2021/06/04 05:17:45;;;;;;;6.20;5.03;;;;;;;;;;1492433;39;20028;-59
2021/06/04 05:18:47;;;;;;;8.77;6.18;;;;;;;;;;1492607;39;20024;-59
2021/06/04 05:19:49;;;;;;;6.65;5.45;;;;;;;;;;1497347;39;20035;-59
2021/06/04 05:20:50;;;;;;;6.80;5.97;;;;;;;;;;1497211;39;20031;-59
2021/06/04 05:21:51;;;;;;;6.35;5.70;;;;;;;;;;1497078;39;20286;-59
2021/06/04 05:22:53;;;;;;;7.85;5.60;;;;;;;;;;1497035;39;20023;-59
2021/06/04 05:23:55;;;;;;;7.50;5.80;;;;;;;;;;1497119;39;20038;-60
2021/06/04 05:24:56;;;;;;;5.93;4.80;;;;;;;;;;1497045;39;20279;-59
2021/06/04 05:25:57;;;;;;;6.45;5.40;;;;;;;;;;1497198;39;20024;-59
2021/06/04 05:26:58;;;;;;;8.00;5.70;;;;;;;;;;1496991;39;20096;-59
2021/06/04 05:28:00;;;;;;;6.05;5.45;;;;;;;;;;1497228;39;20035;-58
2021/06/04 05:29:01;;;;;;;8.13;5.72;;;;;;;;;;1497229;39;20042;-60
2021/06/04 05:30:06;;;;;;;8.35;5.75;;;;;;;;;;1497187;39;20027;-60
2021/06/04 05:31:10;;;;;;;7.97;5.47;;;;;;;;;;1497026;39;20050;-59
2021/06/04 05:32:12;;;;;;;7.30;5.68;;;;;;;;;;1497029;39;20302;-60
2021/06/04 05:33:15;;;;;;;7.15;5.63;;;;;;;;;;1497293;39;20035;-58
2021/06/04 05:34:18;;;;;;;7.90;5.60;;;;;;;;;;1497074;39;20027;-60
2021/06/04 05:35:20;;;;;;;8.20;5.90;;;;;;;;;;1497069;39;20046;-59
2021/06/04 05:36:26;;;;;;;6.47;5.03;;;;;;;;;;1497218;39;20023;-59
2021/06/04 05:37:28;;;;;;;7.55;5.40;;;;;;;;;;1497222;39;20038;-60
2021/06/04 05:38:29;;;;;;;7.28;5.53;;;;;;;;;;1497128;39;20368;-60
2021/06/04 05:39:30;;;;;;;7.18;5.78;;;;;;;;;;1496963;39;20279;-58
2021/06/04 05:40:34;;;;;;;8.55;6.50;;;;;;;;;;1497083;39;20166;-60
2021/06/04 05:41:36;;;;;;;7.95;5.95;;;;;;;;;;1497088;39;20039;-60
2021/06/04 05:42:37;;;;;;;7.18;5.75;;;;;;;;;;1497255;39;20034;-59
2021/06/04 05:43:40;;;;;;;7.63;5.95;;;;;;;;;;1496969;39;20024;-59
2021/06/04 05:44:42;;;;;;;6.70;6.00;;;;;;;;;;1497200;39;20031;-60
2021/06/04 05:45:44;;;;;;;8.38;5.82;;;;;;;;;;1496956;39;20369;-59
2021/06/04 05:46:48;;;;;;;7.00;6.30;;;;;;;;;;1497062;39;20028;-59
2021/06/04 05:47:50;;;;;;;10.32;6.43;;;;;;;;;;1497009;39;20039;-59
2021/06/04 05:48:51;;;;;;;9.38;5.90;;;;;;;;;;1497123;39;20030;-58
2021/06/04 05:49:54;;;;;;;6.78;5.85;;;;;;;;;;1497058;39;20083;-58
2021/06/04 05:50:57;;;;;;;8.38;6.18;;;;;;;;;;1497050;39;20032;-59
2021/06/04 05:51:59;;;;;;;10.00;6.60;;;;;;;;;;1496864;39;20028;-60
2021/06/04 05:53:00;;;;;;;8.25;6.65;;;;;;;;;;1497125;39;20027;-60
2021/06/04 05:54:02;;;;;;;9.77;6.43;;;;;;;;;;1497131;39;20073;-59
2021/06/04 05:55:05;;;;;;;11.20;5.97;;;;;;;;;;1497095;39;20024;-59
2021/06/04 05:56:07;;;;;;;9.27;6.10;;;;;;;;;;1496526;39;20085;-59
2021/06/04 05:57:10;;;;;;;8.20;6.50;;;;;;;;;;1496876;39;20039;-59
2021/06/04 05:58:14;;;;;;;9.85;6.97;;;;;;;;;;1497031;39;20108;-59
2021/06/04 05:59:16;;;;;;;9.75;6.20;;;;;;;;;;1496925;39;20336;-59
2021/06/04 06:00:23;;;;;;;9.45;6.55;;;;;;;;;;1496925;39;20299;-59
2021/06/04 06:01:27;;;;;;;9.60;6.07;;;;;;;;;;1496910;39;20035;-59
2021/06/04 06:02:28;;;;;;;8.75;6.30;;;;;;;;;;1497049;39;20046;-59
2021/06/04 06:03:33;;;;;;;12.88;7.25;;;;;;;;;;1497049;39;20035;-58
2021/06/04 06:04:34;;;;;;;12.55;6.82;;;;;;;;;;1497103;39;20031;-58
2021/06/04 06:05:37;;;;;;;11.20;6.88;;;;;;;;;;1497086;39;20117;-59
2021/06/04 06:06:38;;;;;;;13.27;7.00;;;;;;;;;;1496909;39;20035;-58
2021/06/04 06:07:39;;;;;;;8.13;6.53;;;;;;;;;;1496867;39;20070;-59
2021/06/04 06:08:41;;;;;;;8.35;5.97;;;;;;;;;;1497082;39;20031;-59
2021/06/04 06:09:43;;;;;;;11.07;6.45;;;;;;;;;;1497095;39;20111;-59
2021/06/04 06:10:44;;;;;;;10.20;6.80;;;;;;;;;;1496859;39;20394;-59
2021/06/04 06:11:46;;;;;;;10.32;6.90;;;;;;;;;;1496807;39;20035;-58
2021/06/04 06:12:48;;;;;;;10.48;7.07;;;;;;;;;;1496879;39;20029;-59
2021/06/04 06:13:49;;;;;;;7.78;6.97;;;;;;;;;;1497072;39;20034;-59
2021/06/04 06:14:50;;;;;;;10.15;7.25;;;;;;;;;;1496837;39;20383;-60
2021/06/04 06:15:52;;;;;;;11.25;7.15;;;;;;;;;;1492311;39;20028;-58
2021/06/04 06:16:54;;;;;;;9.00;6.07;;;;;;;;;;1492418;39;20032;-59
2021/06/04 06:17:55;;;;;;;9.93;6.50;;;;;;;;;;1496795;39;20035;-60
2021/06/04 06:18:57;;;;;;;7.72;6.55;;;;;;;;;;1496890;39;20383;-59
2021/06/04 06:19:58;;;;;;;9.82;7.15;;;;;;;;;;1496843;39;20402;-59
2021/06/04 06:21:01;;;;;;;12.05;6.78;;;;;;;;;;1497017;39;20035;-58
2021/06/04 06:22:02;;;;;;;8.70;6.88;;;;;;;;;;1496753;39;20427;-59